sensor_id;sensor_type;location;lat;lon;timestamp;P1;durP1;ratioP1;P2;durP2;ratioP2
14139;SDS011;7150;53.514;9.988;2023-01-04T00:01:13;3.10;;;1.73;;
14139;SDS011;7150;53.514;9.988;2023-01-04T00:03:40;2.10;;;1.80;;
14139;SDS011;7150;53.514;9.988;2023-01-04T00:06:06;4.43;;;1.67;;
14139;SDS011;7150;53.514;9.988;2023-01-04T00:08:33;3.03;;;1.40;;
14139;SDS011;7150;53.514;9.988;2023-01-04T00:11:00;4.03;;;1.83;;
14139;SDS011;7150;53.514;9.988;2023-01-04T00:13:26;5.20;;;1.70;;
14139;SDS011;7150;53.514;9.988;2023-01-04T00:15:53;3.13;;;1.80;;
14139;SDS011;7150;53.514;9.988;2023-01-04T00:18:18;4.87;;;1.80;;
14139;SDS011;7150;53.514;9.988;2023-01-04T00:20:44;2.93;;;1.50;;
14139;SDS011;7150;53.514;9.988;2023-01-04T00:23:09;3.37;;;1.57;;
14139;SDS011;7150;53.514;9.988;2023-01-04T00:25:37;2.70;;;1.50;;
14139;SDS011;7150;53.514;9.988;2023-01-04T00:28:03;4.13;;;1.40;;
14139;SDS011;7150;53.514;9.988;2023-01-04T00:30:28;3.50;;;1.50;;
14139;SDS011;7150;53.514;9.988;2023-01-04T00:32:55;2.30;;;1.50;;
14139;SDS011;7150;53.514;9.988;2023-01-04T00:35:21;3.73;;;1.40;;
14139;SDS011;7150;53.514;9.988;2023-01-04T00:37:46;2.33;;;1.53;;
14139;SDS011;7150;53.514;9.988;2023-01-04T00:40:12;3.57;;;1.63;;
14139;SDS011;7150;53.514;9.988;2023-01-04T00:42:38;4.17;;;1.80;;
14139;SDS011;7150;53.514;9.988;2023-01-04T00:45:03;3.43;;;1.40;;
14139;SDS011;7150;53.514;9.988;2023-01-04T00:47:29;1.90;;;1.17;;
14139;SDS011;7150;53.514;9.988;2023-01-04T00:49:54;2.70;;;1.40;;
14139;SDS011;7150;53.514;9.988;2023-01-04T00:52:20;2.33;;;1.40;;
14139;SDS011;7150;53.514;9.988;2023-01-04T00:54:45;3.30;;;1.47;;
14139;SDS011;7150;53.514;9.988;2023-01-04T00:57:11;5.03;;;1.70;;
14139;SDS011;7150;53.514;9.988;2023-01-04T00:59:36;3.67;;;1.63;;
14139;SDS011;7150;53.514;9.988;2023-01-04T01:02:02;4.27;;;1.40;;
14139;SDS011;7150;53.514;9.988;2023-01-04T01:04:27;1.90;;;1.37;;
14139;SDS011;7150;53.514;9.988;2023-01-04T01:06:53;2.90;;;1.20;;
14139;SDS011;7150;53.514;9.988;2023-01-04T01:09:19;2.10;;;1.43;;
14139;SDS011;7150;53.514;9.988;2023-01-04T01:11:46;3.83;;;1.40;;
14139;SDS011;7150;53.514;9.988;2023-01-04T01:14:22;3.23;;;1.60;;
14139;SDS011;7150;53.514;9.988;2023-01-04T01:16:49;2.40;;;1.70;;
14139;SDS011;7150;53.514;9.988;2023-01-04T01:19:15;5.93;;;1.40;;
14139;SDS011;7150;53.514;9.988;2023-01-04T01:21:41;2.50;;;1.37;;
14139;SDS011;7150;53.514;9.988;2023-01-04T01:24:07;4.33;;;1.50;;
14139;SDS011;7150;53.514;9.988;2023-01-04T01:26:40;2.40;;;1.20;;
14139;SDS011;7150;53.514;9.988;2023-01-04T01:29:06;2.87;;;1.40;;
14139;SDS011;7150;53.514;9.988;2023-01-04T01:31:31;4.63;;;1.47;;
14139;SDS011;7150;53.514;9.988;2023-01-04T01:33:57;2.70;;;1.57;;
14139;SDS011;7150;53.514;9.988;2023-01-04T01:36:23;2.77;;;1.30;;
14139;SDS011;7150;53.514;9.988;2023-01-04T01:38:50;1.73;;;1.20;;
14139;SDS011;7150;53.514;9.988;2023-01-04T01:43:54;2.27;;;1.20;;
14139;SDS011;7150;53.514;9.988;2023-01-04T01:46:34;1.57;;;1.07;;
14139;SDS011;7150;53.514;9.988;2023-01-04T01:49:06;2.83;;;1.33;;
14139;SDS011;7150;53.514;9.988;2023-01-04T01:51:49;3.47;;;1.70;;
14139;SDS011;7150;53.514;9.988;2023-01-04T01:54:18;2.17;;;1.20;;
14139;SDS011;7150;53.514;9.988;2023-01-04T01:56:50;1.63;;;1.03;;
14139;SDS011;7150;53.514;9.988;2023-01-04T01:59:17;3.03;;;1.40;;
14139;SDS011;7150;53.514;9.988;2023-01-04T02:01:44;5.63;;;1.60;;
14139;SDS011;7150;53.514;9.988;2023-01-04T02:04:10;2.30;;;1.60;;
14139;SDS011;7150;53.514;9.988;2023-01-04T02:06:38;1.93;;;0.90;;
14139;SDS011;7150;53.514;9.988;2023-01-04T02:09:07;3.40;;;1.10;;
14139;SDS011;7150;53.514;9.988;2023-01-04T02:11:33;5.50;;;1.30;;
14139;SDS011;7150;53.514;9.988;2023-01-04T02:13:59;3.30;;;1.40;;
14139;SDS011;7150;53.514;9.988;2023-01-04T02:16:47;11.97;;;1.60;;
14139;SDS011;7150;53.514;9.988;2023-01-04T02:30:58;4.17;;;1.57;;
14139;SDS011;7150;53.514;9.988;2023-01-04T02:33:43;4.23;;;1.40;;
14139;SDS011;7150;53.514;9.988;2023-01-04T02:36:33;3.87;;;1.43;;
14139;SDS011;7150;53.514;9.988;2023-01-04T02:39:14;3.40;;;1.23;;
14139;SDS011;7150;53.514;9.988;2023-01-04T02:41:50;4.00;;;1.40;;
14139;SDS011;7150;53.514;9.988;2023-01-04T02:44:43;3.17;;;1.03;;
14139;SDS011;7150;53.514;9.988;2023-01-04T02:47:28;5.47;;;1.30;;
14139;SDS011;7150;53.514;9.988;2023-01-04T02:50:35;2.47;;;1.27;;
14139;SDS011;7150;53.514;9.988;2023-01-04T02:53:14;3.10;;;1.30;;
14139;SDS011;7150;53.514;9.988;2023-01-04T02:56:13;2.13;;;1.33;;
14139;SDS011;7150;53.514;9.988;2023-01-04T03:05:03;6.10;;;1.50;;
14139;SDS011;7150;53.514;9.988;2023-01-04T03:08:06;4.80;;;1.30;;
14139;SDS011;7150;53.514;9.988;2023-01-04T03:10:46;5.97;;;1.27;;
14139;SDS011;7150;53.514;9.988;2023-01-04T03:13:22;5.03;;;1.30;;
14139;SDS011;7150;53.514;9.988;2023-01-04T03:15:53;2.90;;;1.13;;
14139;SDS011;7150;53.514;9.988;2023-01-04T03:18:26;6.23;;;1.30;;
14139;SDS011;7150;53.514;9.988;2023-01-04T03:20:55;3.73;;;1.30;;
14139;SDS011;7150;53.514;9.988;2023-01-04T03:23:23;3.37;;;1.23;;
14139;SDS011;7150;53.514;9.988;2023-01-04T03:26:23;3.97;;;1.70;;
14139;SDS011;7150;53.514;9.988;2023-01-04T03:29:30;5.10;;;1.53;;
14139;SDS011;7150;53.514;9.988;2023-01-04T03:32:25;3.13;;;1.30;;
14139;SDS011;7150;53.514;9.988;2023-01-04T03:35:18;5.43;;;1.50;;
14139;SDS011;7150;53.514;9.988;2023-01-04T03:38:01;2.10;;;1.10;;
14139;SDS011;7150;53.514;9.988;2023-01-04T03:41:00;4.80;;;1.30;;
14139;SDS011;7150;53.514;9.988;2023-01-04T03:44:00;2.73;;;1.10;;
14139;SDS011;7150;53.514;9.988;2023-01-04T03:46:54;5.13;;;1.50;;
14139;SDS011;7150;53.514;9.988;2023-01-04T03:49:49;3.47;;;1.37;;
14139;SDS011;7150;53.514;9.988;2023-01-04T03:52:21;4.90;;;1.30;;
14139;SDS011;7150;53.514;9.988;2023-01-04T03:54:52;3.40;;;1.13;;
14139;SDS011;7150;53.514;9.988;2023-01-04T03:57:20;3.63;;;1.87;;
14139;SDS011;7150;53.514;9.988;2023-01-04T03:59:50;1.60;;;1.10;;
14139;SDS011;7150;53.514;9.988;2023-01-04T04:02:29;1.83;;;1.20;;
14139;SDS011;7150;53.514;9.988;2023-01-04T04:04:56;1.43;;;1.10;;
14139;SDS011;7150;53.514;9.988;2023-01-04T04:07:40;2.03;;;1.30;;
14139;SDS011;7150;53.514;9.988;2023-01-04T04:10:24;2.77;;;1.37;;
14139;SDS011;7150;53.514;9.988;2023-01-04T04:12:50;3.53;;;1.70;;
14139;SDS011;7150;53.514;9.988;2023-01-04T04:15:16;3.97;;;1.30;;
14139;SDS011;7150;53.514;9.988;2023-01-04T04:17:41;2.60;;;1.20;;
14139;SDS011;7150;53.514;9.988;2023-01-04T04:20:07;2.93;;;1.40;;
14139;SDS011;7150;53.514;9.988;2023-01-04T04:22:34;2.83;;;1.07;;
14139;SDS011;7150;53.514;9.988;2023-01-04T04:25:00;6.37;;;1.43;;
14139;SDS011;7150;53.514;9.988;2023-01-04T04:27:25;3.07;;;1.23;;
14139;SDS011;7150;53.514;9.988;2023-01-04T04:29:51;4.07;;;1.30;;
14139;SDS011;7150;53.514;9.988;2023-01-04T04:32:16;3.90;;;1.37;;
14139;SDS011;7150;53.514;9.988;2023-01-04T04:34:42;2.90;;;1.37;;
14139;SDS011;7150;53.514;9.988;2023-01-04T04:37:07;3.77;;;1.50;;
14139;SDS011;7150;53.514;9.988;2023-01-04T04:39:33;4.70;;;1.60;;
14139;SDS011;7150;53.514;9.988;2023-01-04T04:41:58;2.50;;;1.60;;
14139;SDS011;7150;53.514;9.988;2023-01-04T04:44:24;3.10;;;1.50;;
14139;SDS011;7150;53.514;9.988;2023-01-04T04:46:49;2.60;;;1.30;;
14139;SDS011;7150;53.514;9.988;2023-01-04T04:49:15;1.97;;;1.27;;
14139;SDS011;7150;53.514;9.988;2023-01-04T04:51:42;4.07;;;1.43;;
14139;SDS011;7150;53.514;9.988;2023-01-04T04:54:09;2.77;;;1.50;;
14139;SDS011;7150;53.514;9.988;2023-01-04T04:56:38;4.27;;;1.50;;
14139;SDS011;7150;53.514;9.988;2023-01-04T04:59:04;4.87;;;1.60;;
14139;SDS011;7150;53.514;9.988;2023-01-04T05:01:29;2.60;;;1.40;;
14139;SDS011;7150;53.514;9.988;2023-01-04T05:03:55;2.50;;;1.50;;
14139;SDS011;7150;53.514;9.988;2023-01-04T05:06:21;5.50;;;2.10;;
14139;SDS011;7150;53.514;9.988;2023-01-04T05:08:46;3.43;;;1.53;;
14139;SDS011;7150;53.514;9.988;2023-01-04T05:11:12;2.70;;;1.60;;
14139;SDS011;7150;53.514;9.988;2023-01-04T05:13:38;4.07;;;1.47;;
14139;SDS011;7150;53.514;9.988;2023-01-04T05:16:04;2.10;;;1.60;;
14139;SDS011;7150;53.514;9.988;2023-01-04T05:18:31;4.07;;;1.50;;
14139;SDS011;7150;53.514;9.988;2023-01-04T05:20:56;1.60;;;1.20;;
14139;SDS011;7150;53.514;9.988;2023-01-04T05:23:22;4.50;;;1.40;;
14139;SDS011;7150;53.514;9.988;2023-01-04T05:25:57;2.43;;;1.43;;
14139;SDS011;7150;53.514;9.988;2023-01-04T05:28:25;2.83;;;1.57;;
14139;SDS011;7150;53.514;9.988;2023-01-04T05:30:51;3.30;;;1.63;;
14139;SDS011;7150;53.514;9.988;2023-01-04T05:33:26;3.90;;;1.50;;
14139;SDS011;7150;53.514;9.988;2023-01-04T05:35:53;6.47;;;1.40;;
14139;SDS011;7150;53.514;9.988;2023-01-04T05:38:20;5.40;;;1.40;;
14139;SDS011;7150;53.514;9.988;2023-01-04T05:40:46;2.80;;;1.30;;
14139;SDS011;7150;53.514;9.988;2023-01-04T05:43:13;1.73;;;1.20;;
14139;SDS011;7150;53.514;9.988;2023-01-04T05:45:39;2.67;;;1.17;;
14139;SDS011;7150;53.514;9.988;2023-01-04T05:48:07;1.97;;;1.00;;
14139;SDS011;7150;53.514;9.988;2023-01-04T05:50:32;1.73;;;1.10;;
14139;SDS011;7150;53.514;9.988;2023-01-04T05:52:58;1.57;;;1.27;;
14139;SDS011;7150;53.514;9.988;2023-01-04T05:55:23;1.50;;;0.90;;
14139;SDS011;7150;53.514;9.988;2023-01-04T05:57:50;1.13;;;1.00;;
14139;SDS011;7150;53.514;9.988;2023-01-04T06:00:15;1.10;;;0.80;;
14139;SDS011;7150;53.514;9.988;2023-01-04T06:02:42;4.03;;;2.33;;
14139;SDS011;7150;53.514;9.988;2023-01-04T06:05:08;3.80;;;1.40;;
14139;SDS011;7150;53.514;9.988;2023-01-04T06:07:34;1.80;;;1.20;;
14139;SDS011;7150;53.514;9.988;2023-01-04T06:10:00;2.37;;;0.93;;
14139;SDS011;7150;53.514;9.988;2023-01-04T06:12:25;1.17;;;0.93;;
14139;SDS011;7150;53.514;9.988;2023-01-04T06:14:51;1.97;;;1.10;;
14139;SDS011;7150;53.514;9.988;2023-01-04T06:17:16;2.40;;;1.10;;
14139;SDS011;7150;53.514;9.988;2023-01-04T06:19:42;2.23;;;1.07;;
14139;SDS011;7150;53.514;9.988;2023-01-04T06:22:07;2.23;;;1.10;;
14139;SDS011;7150;53.514;9.988;2023-01-04T06:24:33;0.80;;;0.80;;
14139;SDS011;7150;53.514;9.988;2023-01-04T06:26:59;4.30;;;1.20;;
14139;SDS011;7150;53.514;9.988;2023-01-04T06:29:25;2.57;;;1.00;;
14139;SDS011;7150;53.514;9.988;2023-01-04T06:31:51;2.17;;;1.10;;
14139;SDS011;7150;53.514;9.988;2023-01-04T06:34:16;0.97;;;0.80;;
14139;SDS011;7150;53.514;9.988;2023-01-04T06:36:42;2.37;;;1.40;;
14139;SDS011;7150;53.514;9.988;2023-01-04T06:39:07;2.07;;;1.10;;
14139;SDS011;7150;53.514;9.988;2023-01-04T06:41:33;2.63;;;1.10;;
14139;SDS011;7150;53.514;9.988;2023-01-04T06:43:59;1.10;;;0.80;;
14139;SDS011;7150;53.514;9.988;2023-01-04T06:46:24;1.93;;;1.10;;
14139;SDS011;7150;53.514;9.988;2023-01-04T06:48:50;1.00;;;0.90;;
14139;SDS011;7150;53.514;9.988;2023-01-04T06:51:17;1.60;;;1.20;;
14139;SDS011;7150;53.514;9.988;2023-01-04T06:53:43;3.67;;;1.27;;
14139;SDS011;7150;53.514;9.988;2023-01-04T06:56:09;1.10;;;1.00;;
14139;SDS011;7150;53.514;9.988;2023-01-04T06:58:35;1.23;;;1.10;;
14139;SDS011;7150;53.514;9.988;2023-01-04T07:01:00;1.27;;;1.00;;
14139;SDS011;7150;53.514;9.988;2023-01-04T07:03:26;2.20;;;1.10;;
14139;SDS011;7150;53.514;9.988;2023-01-04T07:05:51;1.10;;;1.00;;
14139;SDS011;7150;53.514;9.988;2023-01-04T07:08:17;1.50;;;1.03;;
14139;SDS011;7150;53.514;9.988;2023-01-04T07:10:43;1.83;;;1.07;;
14139;SDS011;7150;53.514;9.988;2023-01-04T07:13:08;1.53;;;0.80;;
14139;SDS011;7150;53.514;9.988;2023-01-04T07:15:34;1.07;;;0.90;;
14139;SDS011;7150;53.514;9.988;2023-01-04T07:18:00;1.57;;;1.30;;
14139;SDS011;7150;53.514;9.988;2023-01-04T07:20:26;1.80;;;1.43;;
14139;SDS011;7150;53.514;9.988;2023-01-04T07:22:51;1.97;;;0.97;;
14139;SDS011;7150;53.514;9.988;2023-01-04T07:25:17;1.00;;;0.90;;
14139;SDS011;7150;53.514;9.988;2023-01-04T07:27:43;1.33;;;1.00;;
14139;SDS011;7150;53.514;9.988;2023-01-04T07:30:08;1.30;;;0.77;;
14139;SDS011;7150;53.514;9.988;2023-01-04T07:32:35;1.77;;;0.80;;
14139;SDS011;7150;53.514;9.988;2023-01-04T07:35:00;1.40;;;0.90;;
14139;SDS011;7150;53.514;9.988;2023-01-04T07:37:26;1.30;;;1.13;;
14139;SDS011;7150;53.514;9.988;2023-01-04T07:39:51;1.00;;;0.87;;
14139;SDS011;7150;53.514;9.988;2023-01-04T07:42:17;1.80;;;0.97;;
14139;SDS011;7150;53.514;9.988;2023-01-04T07:44:44;2.90;;;1.07;;
14139;SDS011;7150;53.514;9.988;2023-01-04T07:47:09;1.37;;;1.27;;
14139;SDS011;7150;53.514;9.988;2023-01-04T07:49:35;1.13;;;1.03;;
14139;SDS011;7150;53.514;9.988;2023-01-04T07:52:01;1.60;;;1.20;;
14139;SDS011;7150;53.514;9.988;2023-01-04T07:54:26;1.60;;;1.40;;
14139;SDS011;7150;53.514;9.988;2023-01-04T07:56:52;1.43;;;1.30;;
14139;SDS011;7150;53.514;9.988;2023-01-04T07:59:18;3.43;;;1.50;;
14139;SDS011;7150;53.514;9.988;2023-01-04T08:01:45;1.50;;;1.23;;
14139;SDS011;7150;53.514;9.988;2023-01-04T08:04:11;1.97;;;1.50;;
14139;SDS011;7150;53.514;9.988;2023-01-04T08:06:38;2.47;;;1.43;;
14139;SDS011;7150;53.514;9.988;2023-01-04T08:09:04;1.93;;;1.73;;
14139;SDS011;7150;53.514;9.988;2023-01-04T08:11:31;2.50;;;1.53;;
14139;SDS011;7150;53.514;9.988;2023-01-04T08:13:57;2.00;;;1.80;;
14139;SDS011;7150;53.514;9.988;2023-01-04T08:18:53;2.00;;;1.77;;
14139;SDS011;7150;53.514;9.988;2023-01-04T08:21:19;1.93;;;1.67;;
14139;SDS011;7150;53.514;9.988;2023-01-04T08:23:45;2.23;;;1.80;;
14139;SDS011;7150;53.514;9.988;2023-01-04T08:26:12;2.30;;;1.77;;
14139;SDS011;7150;53.514;9.988;2023-01-04T08:28:39;2.00;;;1.80;;
14139;SDS011;7150;53.514;9.988;2023-01-04T08:31:06;4.57;;;1.70;;
14139;SDS011;7150;53.514;9.988;2023-01-04T08:33:35;1.90;;;1.70;;
14139;SDS011;7150;53.514;9.988;2023-01-04T08:36:11;2.00;;;1.80;;
14139;SDS011;7150;53.514;9.988;2023-01-04T08:38:42;2.37;;;1.83;;
14139;SDS011;7150;53.514;9.988;2023-01-04T08:41:08;2.27;;;1.87;;
14139;SDS011;7150;53.514;9.988;2023-01-04T08:43:33;2.00;;;1.77;;
14139;SDS011;7150;53.514;9.988;2023-01-04T08:46:03;2.87;;;1.57;;
14139;SDS011;7150;53.514;9.988;2023-01-04T08:48:29;2.83;;;1.63;;
14139;SDS011;7150;53.514;9.988;2023-01-04T08:50:59;2.40;;;2.20;;
14139;SDS011;7150;53.514;9.988;2023-01-04T08:53:26;2.10;;;1.90;;
14139;SDS011;7150;53.514;9.988;2023-01-04T08:55:53;2.03;;;1.53;;
14139;SDS011;7150;53.514;9.988;2023-01-04T08:58:18;1.90;;;1.73;;
14139;SDS011;7150;53.514;9.988;2023-01-04T09:00:44;1.83;;;1.73;;
14139;SDS011;7150;53.514;9.988;2023-01-04T09:03:10;2.67;;;1.37;;
14139;SDS011;7150;53.514;9.988;2023-01-04T09:05:36;2.37;;;1.80;;
14139;SDS011;7150;53.514;9.988;2023-01-04T09:08:02;2.27;;;1.77;;
14139;SDS011;7150;53.514;9.988;2023-01-04T09:10:27;2.63;;;1.77;;
14139;SDS011;7150;53.514;9.988;2023-01-04T09:12:53;2.10;;;1.80;;
14139;SDS011;7150;53.514;9.988;2023-01-04T09:15:19;2.07;;;1.60;;
14139;SDS011;7150;53.514;9.988;2023-01-04T09:17:44;1.77;;;1.67;;
14139;SDS011;7150;53.514;9.988;2023-01-04T09:20:10;2.20;;;1.90;;
14139;SDS011;7150;53.514;9.988;2023-01-04T09:22:35;2.93;;;2.00;;
14139;SDS011;7150;53.514;9.988;2023-01-04T09:25:01;2.30;;;2.10;;
14139;SDS011;7150;53.514;9.988;2023-01-04T09:27:28;4.23;;;2.10;;
14139;SDS011;7150;53.514;9.988;2023-01-04T09:29:55;2.47;;;2.10;;
14139;SDS011;7150;53.514;9.988;2023-01-04T09:32:21;2.30;;;1.93;;
14139;SDS011;7150;53.514;9.988;2023-01-04T09:34:46;1.87;;;1.77;;
14139;SDS011;7150;53.514;9.988;2023-01-04T09:37:12;2.97;;;2.03;;
14139;SDS011;7150;53.514;9.988;2023-01-04T09:39:37;2.27;;;1.83;;
14139;SDS011;7150;53.514;9.988;2023-01-04T09:42:04;4.40;;;2.07;;
14139;SDS011;7150;53.514;9.988;2023-01-04T09:45:04;1.97;;;1.77;;
14139;SDS011;7150;53.514;9.988;2023-01-04T09:47:49;2.07;;;1.60;;
14139;SDS011;7150;53.514;9.988;2023-01-04T09:50:28;2.40;;;1.60;;
14139;SDS011;7150;53.514;9.988;2023-01-04T09:53:03;3.13;;;2.40;;
14139;SDS011;7150;53.514;9.988;2023-01-04T09:55:47;2.93;;;2.20;;
14139;SDS011;7150;53.514;9.988;2023-01-04T10:01:06;2.67;;;2.10;;
14139;SDS011;7150;53.514;9.988;2023-01-04T10:03:39;2.27;;;2.07;;
14139;SDS011;7150;53.514;9.988;2023-01-04T10:06:11;3.27;;;2.10;;
14139;SDS011;7150;53.514;9.988;2023-01-04T10:08:40;2.70;;;1.70;;
14139;SDS011;7150;53.514;9.988;2023-01-04T10:11:16;1.83;;;1.73;;
14139;SDS011;7150;53.514;9.988;2023-01-04T10:13:49;2.77;;;1.43;;
14139;SDS011;7150;53.514;9.988;2023-01-04T10:22:11;1.60;;;1.40;;
14139;SDS011;7150;53.514;9.988;2023-01-04T10:24:53;2.10;;;1.37;;
14139;SDS011;7150;53.514;9.988;2023-01-04T10:32:55;1.20;;;1.10;;
14139;SDS011;7150;53.514;9.988;2023-01-04T10:35:23;1.30;;;1.20;;
14139;SDS011;7150;53.514;9.988;2023-01-04T10:37:58;1.57;;;1.40;;
14139;SDS011;7150;53.514;9.988;2023-01-04T10:40:26;1.37;;;1.27;;
14139;SDS011;7150;53.514;9.988;2023-01-04T10:42:59;1.40;;;1.30;;
14139;SDS011;7150;53.514;9.988;2023-01-04T10:48:17;1.70;;;1.57;;
14139;SDS011;7150;53.514;9.988;2023-01-04T10:50:58;1.63;;;1.53;;
14139;SDS011;7150;53.514;9.988;2023-01-04T10:56:02;1.70;;;1.50;;
14139;SDS011;7150;53.514;9.988;2023-01-04T11:01:48;2.47;;;1.70;;
14139;SDS011;7150;53.514;9.988;2023-01-04T11:07:15;1.80;;;1.50;;
14139;SDS011;7150;53.514;9.988;2023-01-04T11:10:08;1.33;;;1.23;;
14139;SDS011;7150;53.514;9.988;2023-01-04T11:12:34;1.70;;;1.60;;
14139;SDS011;7150;53.514;9.988;2023-01-04T11:15:00;2.13;;;1.40;;
14139;SDS011;7150;53.514;9.988;2023-01-04T11:17:25;1.70;;;1.17;;
14139;SDS011;7150;53.514;9.988;2023-01-04T11:19:52;1.60;;;1.47;;
14139;SDS011;7150;53.514;9.988;2023-01-04T11:24:55;1.50;;;1.40;;
14139;SDS011;7150;53.514;9.988;2023-01-04T11:27:27;2.70;;;1.20;;
14139;SDS011;7150;53.514;9.988;2023-01-04T11:32:45;1.57;;;1.23;;
14139;SDS011;7150;53.514;9.988;2023-01-04T11:35:16;2.60;;;1.30;;
14139;SDS011;7150;53.514;9.988;2023-01-04T11:38:08;2.70;;;1.30;;
14139;SDS011;7150;53.514;9.988;2023-01-04T11:41:06;1.23;;;1.13;;
14139;SDS011;7150;53.514;9.988;2023-01-04T11:43:39;1.63;;;1.30;;
14139;SDS011;7150;53.514;9.988;2023-01-04T11:46:20;1.70;;;1.10;;
14139;SDS011;7150;53.514;9.988;2023-01-04T11:48:48;2.03;;;0.90;;
14139;SDS011;7150;53.514;9.988;2023-01-04T11:51:16;1.20;;;1.10;;
14139;SDS011;7150;53.514;9.988;2023-01-04T11:53:59;1.00;;;0.90;;
14139;SDS011;7150;53.514;9.988;2023-01-04T11:56:27;0.97;;;0.90;;
14139;SDS011;7150;53.514;9.988;2023-01-04T11:59:11;0.70;;;0.70;;
14139;SDS011;7150;53.514;9.988;2023-01-04T12:01:44;1.90;;;1.00;;
14139;SDS011;7150;53.514;9.988;2023-01-04T12:04:19;1.23;;;0.93;;
14139;SDS011;7150;53.514;9.988;2023-01-04T12:06:48;0.90;;;0.90;;
14139;SDS011;7150;53.514;9.988;2023-01-04T12:09:15;1.00;;;1.00;;
14139;SDS011;7150;53.514;9.988;2023-01-04T12:11:43;1.00;;;0.70;;
14139;SDS011;7150;53.514;9.988;2023-01-04T12:14:21;0.83;;;0.73;;
14139;SDS011;7150;53.514;9.988;2023-01-04T12:16:52;1.00;;;0.73;;
14139;SDS011;7150;53.514;9.988;2023-01-04T12:19:20;0.77;;;0.70;;
14139;SDS011;7150;53.514;9.988;2023-01-04T12:21:48;0.80;;;0.80;;
14139;SDS011;7150;53.514;9.988;2023-01-04T12:24:20;0.70;;;0.67;;
14139;SDS011;7150;53.514;9.988;2023-01-04T12:26:48;2.00;;;1.33;;
14139;SDS011;7150;53.514;9.988;2023-01-04T12:31:46;1.23;;;0.60;;
14139;SDS011;7150;53.514;9.988;2023-01-04T12:42:07;0.60;;;0.60;;
14139;SDS011;7150;53.514;9.988;2023-01-04T12:47:01;2.03;;;0.60;;
14139;SDS011;7150;53.514;9.988;2023-01-04T12:54:50;1.03;;;0.80;;
14139;SDS011;7150;53.514;9.988;2023-01-04T12:57:25;3.43;;;1.10;;
14139;SDS011;7150;53.514;9.988;2023-01-04T13:02:32;1.10;;;1.00;;
14139;SDS011;7150;53.514;9.988;2023-01-04T13:05:00;1.27;;;0.90;;
14139;SDS011;7150;53.514;9.988;2023-01-04T13:07:45;1.43;;;1.00;;
14139;SDS011;7150;53.514;9.988;2023-01-04T13:10:32;1.00;;;0.73;;
14139;SDS011;7150;53.514;9.988;2023-01-04T13:18:36;1.20;;;1.10;;
14139;SDS011;7150;53.514;9.988;2023-01-04T13:21:03;1.77;;;1.30;;
14139;SDS011;7150;53.514;9.988;2023-01-04T13:23:38;2.13;;;1.67;;
14139;SDS011;7150;53.514;9.988;2023-01-04T13:29:03;1.43;;;1.23;;
14139;SDS011;7150;53.514;9.988;2023-01-04T13:37:01;1.50;;;1.00;;
14139;SDS011;7150;53.514;9.988;2023-01-04T13:39:44;1.17;;;1.07;;
14139;SDS011;7150;53.514;9.988;2023-01-04T13:42:17;2.03;;;1.17;;
14139;SDS011;7150;53.514;9.988;2023-01-04T13:45:06;1.53;;;1.20;;
14139;SDS011;7150;53.514;9.988;2023-01-04T13:47:50;2.90;;;1.13;;
14139;SDS011;7150;53.514;9.988;2023-01-04T13:50:28;2.10;;;1.13;;
14139;SDS011;7150;53.514;9.988;2023-01-04T13:52:57;1.10;;;1.00;;
14139;SDS011;7150;53.514;9.988;2023-01-04T13:55:24;1.47;;;1.30;;
14139;SDS011;7150;53.514;9.988;2023-01-04T13:57:56;1.33;;;1.20;;
14139;SDS011;7150;53.514;9.988;2023-01-04T14:00:23;1.30;;;1.20;;
14139;SDS011;7150;53.514;9.988;2023-01-04T14:03:11;4.40;;;1.20;;
14139;SDS011;7150;53.514;9.988;2023-01-04T14:05:45;1.80;;;1.40;;
14139;SDS011;7150;53.514;9.988;2023-01-04T14:08:16;3.10;;;1.30;;
14139;SDS011;7150;53.514;9.988;2023-01-04T14:10:45;2.53;;;1.50;;
14139;SDS011;7150;53.514;9.988;2023-01-04T14:13:14;1.90;;;1.50;;
14139;SDS011;7150;53.514;9.988;2023-01-04T14:15:42;2.07;;;1.40;;
14139;SDS011;7150;53.514;9.988;2023-01-04T14:18:24;5.43;;;1.70;;
14139;SDS011;7150;53.514;9.988;2023-01-04T14:20:52;1.60;;;1.50;;
14139;SDS011;7150;53.514;9.988;2023-01-04T14:23:38;1.70;;;1.20;;
14139;SDS011;7150;53.514;9.988;2023-01-04T14:26:03;2.77;;;1.30;;
14139;SDS011;7150;53.514;9.988;2023-01-04T14:28:33;1.50;;;1.30;;
14139;SDS011;7150;53.514;9.988;2023-01-04T14:38:41;3.00;;;1.30;;
14139;SDS011;7150;53.514;9.988;2023-01-04T14:44:30;2.27;;;1.03;;
14139;SDS011;7150;53.514;9.988;2023-01-04T14:46:41;6.40;;;1.40;;
14139;SDS011;7150;53.514;9.988;2023-01-04T14:49:10;4.60;;;1.40;;
14139;SDS011;7150;53.514;9.988;2023-01-04T14:51:37;2.93;;;1.10;;
14139;SDS011;7150;53.514;9.988;2023-01-04T14:54:05;2.03;;;0.97;;
14139;SDS011;7150;53.514;9.988;2023-01-04T14:56:31;6.33;;;1.70;;
14139;SDS011;7150;53.514;9.988;2023-01-04T14:58:58;3.17;;;1.10;;
14139;SDS011;7150;53.514;9.988;2023-01-04T15:01:24;3.27;;;1.07;;
14139;SDS011;7150;53.514;9.988;2023-01-04T15:03:49;6.23;;;1.20;;
14139;SDS011;7150;53.514;9.988;2023-01-04T15:06:15;3.47;;;1.13;;
14139;SDS011;7150;53.514;9.988;2023-01-04T15:08:40;4.67;;;1.80;;
14139;SDS011;7150;53.514;9.988;2023-01-04T15:11:06;6.00;;;1.17;;
14139;SDS011;7150;53.514;9.988;2023-01-04T15:13:33;6.00;;;1.23;;
14139;SDS011;7150;53.514;9.988;2023-01-04T15:16:02;3.07;;;1.10;;
14139;SDS011;7150;53.514;9.988;2023-01-04T15:18:28;5.53;;;1.50;;
14139;SDS011;7150;53.514;9.988;2023-01-04T15:20:53;4.00;;;1.27;;
14139;SDS011;7150;53.514;9.988;2023-01-04T15:23:19;5.10;;;1.33;;
14139;SDS011;7150;53.514;9.988;2023-01-04T15:25:44;6.00;;;1.30;;
14139;SDS011;7150;53.514;9.988;2023-01-04T15:28:10;5.63;;;1.60;;
14139;SDS011;7150;53.514;9.988;2023-01-04T15:30:39;5.63;;;1.47;;
14139;SDS011;7150;53.514;9.988;2023-01-04T15:33:06;7.33;;;1.60;;
14139;SDS011;7150;53.514;9.988;2023-01-04T15:35:31;6.23;;;1.50;;
14139;SDS011;7150;53.514;9.988;2023-01-04T15:37:57;7.17;;;2.17;;
14139;SDS011;7150;53.514;9.988;2023-01-04T15:40:22;5.10;;;2.00;;
14139;SDS011;7150;53.514;9.988;2023-01-04T15:42:48;9.50;;;2.13;;
14139;SDS011;7150;53.514;9.988;2023-01-04T15:45:22;5.20;;;1.77;;
14139;SDS011;7150;53.514;9.988;2023-01-04T15:47:49;7.07;;;1.70;;
14139;SDS011;7150;53.514;9.988;2023-01-04T15:50:15;5.57;;;1.90;;
14139;SDS011;7150;53.514;9.988;2023-01-04T15:52:41;7.57;;;1.87;;
14139;SDS011;7150;53.514;9.988;2023-01-04T15:55:07;5.83;;;2.17;;
14139;SDS011;7150;53.514;9.988;2023-01-04T15:57:33;5.13;;;1.90;;
14139;SDS011;7150;53.514;9.988;2023-01-04T15:59:58;6.20;;;1.77;;
14139;SDS011;7150;53.514;9.988;2023-01-04T16:02:24;8.13;;;2.50;;
14139;SDS011;7150;53.514;9.988;2023-01-04T16:04:49;5.30;;;1.70;;
14139;SDS011;7150;53.514;9.988;2023-01-04T16:07:15;5.10;;;2.00;;
14139;SDS011;7150;53.514;9.988;2023-01-04T16:09:41;3.77;;;1.70;;
14139;SDS011;7150;53.514;9.988;2023-01-04T16:12:07;4.50;;;1.67;;
14139;SDS011;7150;53.514;9.988;2023-01-04T16:14:51;8.63;;;1.73;;
14139;SDS011;7150;53.514;9.988;2023-01-04T16:17:17;6.27;;;2.10;;
14139;SDS011;7150;53.514;9.988;2023-01-04T16:19:43;4.57;;;1.40;;
14139;SDS011;7150;53.514;9.988;2023-01-04T16:22:08;7.50;;;2.00;;
14139;SDS011;7150;53.514;9.988;2023-01-04T16:24:34;9.33;;;2.37;;
14139;SDS011;7150;53.514;9.988;2023-01-04T16:26:59;4.27;;;1.40;;
14139;SDS011;7150;53.514;9.988;2023-01-04T16:29:25;7.97;;;1.87;;
14139;SDS011;7150;53.514;9.988;2023-01-04T16:31:50;6.93;;;1.90;;
14139;SDS011;7150;53.514;9.988;2023-01-04T16:34:16;5.87;;;2.10;;
14139;SDS011;7150;53.514;9.988;2023-01-04T16:36:41;6.27;;;1.70;;
14139;SDS011;7150;53.514;9.988;2023-01-04T16:39:07;4.87;;;1.50;;
14139;SDS011;7150;53.514;9.988;2023-01-04T16:41:33;8.50;;;1.80;;
14139;SDS011;7150;53.514;9.988;2023-01-04T16:43:59;6.53;;;2.10;;
14139;SDS011;7150;53.514;9.988;2023-01-04T16:46:28;7.70;;;1.77;;
14139;SDS011;7150;53.514;9.988;2023-01-04T16:51:41;11.33;;;2.20;;
14139;SDS011;7150;53.514;9.988;2023-01-04T16:54:11;8.17;;;2.00;;
14139;SDS011;7150;53.514;9.988;2023-01-04T16:56:38;7.20;;;1.87;;
14139;SDS011;7150;53.514;9.988;2023-01-04T16:59:05;5.53;;;2.00;;